WMKK

Kuala Lumpur International Airport

Airport
ICAO code
WMKK
IATA Code
KUL
Summary
ICAO Region
APAC
ICAO Territory
Location

Sepang, Selangor

Serving
Kuala Lumpur
Elevation
71 ft
Coordinates
2° 45' 39" N , 101° 42' 42" E
KCC
Airport LOS
Parallel Runway Operation
Metar
WMKK 250500Z VRB01KT 9999 SCT018 33/26 Q1008 NOSIG

Kuala Lumpur International Airport (commonly known as KLIA) is one of Southeast Asia's major aviation hubs. It is also Malaysia's main international airport. It is situated in the Sepang district, in the south of the state of Selangor, about 50 km from the capital city, Kuala Lumpur.

Airport map

Aerial View

SKYbrary Partners:

Safety knowledge contributed by: